Time,TemperatureF,DewpointF,PressureIn,WindDirection,WindDirectionDegrees,WindSpeedMPH,WindSpeedGustMPH,Humidity,HourlyPrecipIn,Conditions,Clouds,dailyrainin,SolarRadiationWatts/m^2,SoftwareType,DateUTC
2013-07-28 00:01:00,67.0,65.8,29.92,SSE,148,0.0,0.0,96,0.00,,,0.00,0,HR-IXPWINDi_r2_v1.2.,2013-07-28 04:01:00,
2013-07-28 00:06:00,66.6,65.4,29.92,SSE,148,0.0,0.0,96,0.00,,,0.00,0,HR-IXPWINDi_r2_v1.2.,2013-07-28 04:06:00,
2013-07-28 00:11:00,66.6,65.4,29.92,SSE,148,0.0,0.0,96,0.00,,,0.00,0,HR-IXPWINDi_r2_v1.2.,2013-07-28 04:11:00,
2013-07-28 00:17:00,66.5,65.3,29.91,SSE,148,0.0,0.0,96,0.00,,,0.00,0,HR-IXPWINDi_r2_v1.2.,2013-07-28 04:17:00,
2013-07-28 00:22:00,66.5,65.6,29.91,SSE,148,0.0,0.0,97,0.00,,,0.00,0,HR-IXPWINDi_r2_v1.2.,2013-07-28 04:22:00,
2013-07-28 00:27:00,66.5,65.6,29.91,SSE,148,0.0,1.0,97,0.00,,,0.00,0,HR-IXPWINDi_r2_v1.2.,2013-07-28 04:27:00,
2013-07-28 00:32:00,66.5,65.6,29.91,SSE,148,0.0,1.0,97,0.00,,,0.00,0,HR-IXPWINDi_r2_v1.2.,2013-07-28 04:32:00,
2013-07-28 00:37:00,66.6,65.7,29.91,SE,144,0.0,4.0,97,0.00,,,0.00,0,HR-IXPWINDi_r2_v1.2.,2013-07-28 04:37:00,
2013-07-28 00:42:00,66.5,65.6,29.91,SE,144,2.0,4.0,97,0.00,,,0.00,0,HR-IXPWINDi_r2_v1.2.,2013-07-28 04:42:00,
2013-07-28 00:47:00,66.5,65.6,29.91,SE,144,0.0,5.0,97,0.00,,,0.00,0,HR-IXPWINDi_r2_v1.2.,2013-07-28 04:47:00,
2013-07-28 00:52:00,66.5,65.6,29.91,SE,144,0.0,5.0,97,0.00,,,0.00,0,HR-IXPWINDi_r2_v1.2.,2013-07-28 04:52:00,
2013-07-28 00:57:00,66.5,65.6,29.91,SE,144,2.0,2.0,97,0.00,,,0.00,0,HR-IXPWINDi_r2_v1.2.,2013-07-28 04:57:00,
2013-07-28 01:02:00,66.5,65.6,29.90,SE,144,0.0,2.0,97,0.00,,,0.00,0,HR-IXPWINDi_r2_v1.2.,2013-07-28 05:02:00,
2013-07-28 01:07:00,66.4,65.5,29.91,SE,144,0.0,4.0,97,0.00,,,0.00,0,HR-IXPWINDi_r2_v1.2.,2013-07-28 05:07:00,
2013-07-28 01:12:00,66.5,65.6,29.90,SE,144,0.0,4.0,97,0.00,,,0.00,0,HR-IXPWINDi_r2_v1.2.,2013-07-28 05:12:00,
2013-07-28 01:17:00,66.5,65.6,29.90,SE,144,0.0,4.0,97,0.00,,,0.00,0,HR-IXPWINDi_r2_v1.2.,2013-07-28 05:17:00,
2013-07-28 01:23:00,66.6,65.7,29.90,SE,144,0.0,0.0,97,0.00,,,0.00,0,HR-IXPWINDi_r2_v1.2.,2013-07-28 05:23:00,
2013-07-28 01:28:00,66.6,65.7,29.90,SE,144,0.0,1.0,97,0.00,,,0.00,0,HR-IXPWINDi_r2_v1.2.,2013-07-28 05:28:00,
2013-07-28 01:33:00,66.6,65.7,29.90,SE,144,0.0,1.0,97,0.00,,,0.00,0,HR-IXPWINDi_r2_v1.2.,2013-07-28 05:33:00,
2013-07-28 01:39:00,66.5,65.6,29.90,SE,144,0.0,1.0,97,0.00,,,0.00,0,HR-IXPWINDi_r2_v1.2.,2013-07-28 05:39:00,
2013-07-28 01:44:00,66.6,65.7,29.89,SE,144,0.0,1.0,97,0.00,,,0.00,0,HR-IXPWINDi_r2_v1.2.,2013-07-28 05:44:00,
2013-07-28 01:49:00,66.5,65.6,29.89,SE,144,0.0,1.0,97,0.00,,,0.00,0,HR-IXPWINDi_r2_v1.2.,2013-07-28 05:49:00,
2013-07-28 01:54:00,66.6,65.7,29.89,SE,144,0.0,0.0,97,0.00,,,0.00,0,HR-IXPWINDi_r2_v1.2.,2013-07-28 05:54:00,
2013-07-28 02:00:00,66.6,65.7,29.89,SE,144,0.0,0.0,97,0.00,,,0.00,0,HR-IXPWINDi_r2_v1.2.,2013-07-28 06:00:00,
2013-07-28 02:05:00,66.7,65.8,29.90,SE,144,0.0,0.0,97,0.00,,,0.00,0,HR-IXPWINDi_r2_v1.2.,2013-07-28 06:05:00,
2013-07-28 02:10:00,66.5,65.6,29.89,SE,144,0.0,0.0,97,0.00,,,0.00,0,HR-IXPWINDi_r2_v1.2.,2013-07-28 06:10:00,
2013-07-28 02:15:00,66.5,65.6,29.89,SE,144,0.0,0.0,97,0.00,,,0.00,0,HR-IXPWINDi_r2_v1.2.,2013-07-28 06:15:00,
2013-07-28 02:20:00,66.7,65.8,29.89,SE,144,0.0,0.0,97,0.00,,,0.00,0,HR-IXPWINDi_r2_v1.2.,2013-07-28 06:20:00,
2013-07-28 02:25:00,66.8,65.9,29.89,SE,144,0.0,0.0,97,0.00,,,0.00,0,HR-IXPWINDi_r2_v1.2.,2013-07-28 06:25:00,
2013-07-28 02:30:00,66.6,65.7,29.89,SE,144,0.0,1.0,97,0.00,,,0.00,0,HR-IXPWINDi_r2_v1.2.,2013-07-28 06:30:00,
2013-07-28 02:35:00,66.5,65.6,29.89,SE,144,0.0,1.0,97,0.00,,,0.00,0,HR-IXPWINDi_r2_v1.2.,2013-07-28 06:35:00,
2013-07-28 02:41:00,66.6,65.7,29.89,SE,144,0.0,0.0,97,0.00,,,0.00,0,HR-IXPWINDi_r2_v1.2.,2013-07-28 06:41:00,
2013-07-28 02:46:00,66.7,65.8,29.89,SE,144,0.0,0.0,97,0.00,,,0.00,0,HR-IXPWINDi_r2_v1.2.,2013-07-28 06:46:00,
2013-07-28 02:51:00,66.5,65.6,29.89,SE,144,0.0,0.0,97,0.00,,,0.00,0,HR-IXPWINDi_r2_v1.2.,2013-07-28 06:51:00,
2013-07-28 02:57:00,66.3,65.4,29.89,SE,144,0.0,0.0,97,0.00,,,0.00,0,HR-IXPWINDi_r2_v1.2.,2013-07-28 06:57:00,
2013-07-28 03:02:00,66.1,65.2,29.89,SE,144,0.0,0.0,97,0.00,,,0.00,0,HR-IXPWINDi_r2_v1.2.,2013-07-28 07:02:00,
2013-07-28 03:07:00,66.0,65.1,29.89,SE,144,0.0,0.0,97,0.00,,,0.00,0,HR-IXPWINDi_r2_v1.2.,2013-07-28 07:07:00,
2013-07-28 03:12:00,66.1,65.2,29.89,SE,144,0.0,0.0,97,0.00,,,0.00,0,HR-IXPWINDi_r2_v1.2.,2013-07-28 07:12:00,
2013-07-28 03:17:00,66.0,65.1,29.89,SE,144,0.0,0.0,97,0.00,,,0.00,0,HR-IXPWINDi_r2_v1.2.,2013-07-28 07:17:00,
2013-07-28 03:22:00,66.0,65.1,29.89,SE,144,0.0,0.0,97,0.00,,,0.00,0,HR-IXPWINDi_r2_v1.2.,2013-07-28 07:22:00,
2013-07-28 03:28:00,66.2,65.3,29.89,SE,144,0.0,0.0,97,0.00,,,0.00,0,HR-IXPWINDi_r2_v1.2.,2013-07-28 07:28:00,
2013-07-28 03:33:00,66.1,65.2,29.90,SE,144,0.0,0.0,97,0.00,,,0.00,0,HR-IXPWINDi_r2_v1.2.,2013-07-28 07:33:00,
2013-07-28 03:38:00,66.2,65.3,29.90,SE,144,0.0,0.0,97,0.00,,,0.00,0,HR-IXPWINDi_r2_v1.2.,2013-07-28 07:38:00,
2013-07-28 03:43:00,65.9,65.0,29.90,SE,144,0.0,1.0,97,0.00,,,0.00,0,HR-IXPWINDi_r2_v1.2.,2013-07-28 07:43:00,
2013-07-28 03:49:00,65.9,65.0,29.90,SE,144,0.0,1.0,97,0.00,,,0.00,0,HR-IXPWINDi_r2_v1.2.,2013-07-28 07:49:00,
2013-07-28 03:54:00,66.0,65.1,29.90,SE,144,0.0,0.0,97,0.00,,,0.00,0,HR-IXPWINDi_r2_v1.2.,2013-07-28 07:54:00,
2013-07-28 03:59:00,66.0,65.4,29.89,SE,144,0.0,0.0,98,0.00,,,0.00,0,HR-IXPWINDi_r2_v1.2.,2013-07-28 07:59:00,
2013-07-28 04:04:00,66.0,65.1,29.90,SE,144,0.0,0.0,97,0.00,,,0.00,0,HR-IXPWINDi_r2_v1.2.,2013-07-28 08:04:00,
2013-07-28 04:09:00,66.1,65.2,29.89,SE,144,0.0,0.0,97,0.00,,,0.00,0,HR-IXPWINDi_r2_v1.2.,2013-07-28 08:09:00,
2013-07-28 04:14:00,66.0,65.1,29.90,SE,144,0.0,1.0,97,0.00,,,0.00,0,HR-IXPWINDi_r2_v1.2.,2013-07-28 08:14:00,
2013-07-28 04:20:00,66.1,65.2,29.90,SE,144,0.0,1.0,97,0.00,,,0.00,0,HR-IXPWINDi_r2_v1.2.,2013-07-28 08:20:00,
2013-07-28 04:25:00,65.8,64.9,29.89,SE,144,0.0,0.0,97,0.00,,,0.00,0,HR-IXPWINDi_r2_v1.2.,2013-07-28 08:25:00,
2013-07-28 04:30:00,65.6,64.7,29.89,SE,144,0.0,0.0,97,0.00,,,0.00,0,HR-IXPWINDi_r2_v1.2.,2013-07-28 08:30:00,
2013-07-28 04:35:00,65.2,64.3,29.89,SE,144,0.0,1.0,97,0.00,,,0.00,0,HR-IXPWINDi_r2_v1.2.,2013-07-28 08:35:00,
2013-07-28 04:40:00,65.1,64.2,29.89,SE,144,0.0,1.0,97,0.00,,,0.00,0,HR-IXPWINDi_r2_v1.2.,2013-07-28 08:40:00,
2013-07-28 04:46:00,65.1,64.2,29.89,SE,144,0.0,0.0,97,0.00,,,0.00,0,HR-IXPWINDi_r2_v1.2.,2013-07-28 08:46:00,
2013-07-28 04:51:00,65.1,64.2,29.89,SE,144,0.0,1.0,97,0.00,,,0.00,0,HR-IXPWINDi_r2_v1.2.,2013-07-28 08:51:00,
2013-07-28 04:56:00,65.1,64.2,29.89,SE,144,0.0,1.0,97,0.00,,,0.00,0,HR-IXPWINDi_r2_v1.2.,2013-07-28 08:56:00,
2013-07-28 05:02:00,65.1,64.2,29.89,SE,144,0.0,1.0,97,0.00,,,0.00,0,HR-IXPWINDi_r2_v1.2.,2013-07-28 09:02:00,
2013-07-28 05:07:00,64.7,63.8,29.89,SE,144,0.0,1.0,97,0.00,,,0.00,0,HR-IXPWINDi_r2_v1.2.,2013-07-28 09:07:00,
2013-07-28 05:12:00,64.5,63.6,29.89,SE,144,0.0,0.0,97,0.00,,,0.00,0,HR-IXPWINDi_r2_v1.2.,2013-07-28 09:12:00,
2013-07-28 05:17:00,64.7,64.1,29.90,SE,144,0.0,0.0,98,0.00,,,0.00,0,HR-IXPWINDi_r2_v1.2.,2013-07-28 09:17:00,
2013-07-28 05:23:00,64.8,64.2,29.90,SE,144,0.0,1.0,98,0.00,,,0.00,0,HR-IXPWINDi_r2_v1.2.,2013-07-28 09:23:00,
2013-07-28 05:28:00,64.6,64.0,29.90,SE,144,0.0,1.0,98,0.00,,,0.00,0,HR-IXPWINDi_r2_v1.2.,2013-07-28 09:28:00,
2013-07-28 05:33:00,64.5,63.9,29.91,SE,144,2.0,4.0,98,0.00,,,0.00,0,HR-IXPWINDi_r2_v1.2.,2013-07-28 09:33:00,
2013-07-28 05:38:00,64.5,63.6,29.90,SE,145,4.0,4.0,97,0.00,,,0.00,0,HR-IXPWINDi_r2_v1.2.,2013-07-28 09:38:00,
2013-07-28 05:43:00,64.9,64.3,29.91,SE,145,2.0,5.0,98,0.00,,,0.00,0,HR-IXPWINDi_r2_v1.2.,2013-07-28 09:43:00,
2013-07-28 05:48:00,64.9,64.3,29.91,SE,145,1.0,5.0,98,0.00,,,0.00,0,HR-IXPWINDi_r2_v1.2.,2013-07-28 09:48:00,
2013-07-28 05:54:00,65.0,64.4,29.91,SE,136,0.0,4.0,98,0.00,,,0.00,0,HR-IXPWINDi_r2_v1.2.,2013-07-28 09:54:00,
2013-07-28 05:59:00,65.0,64.4,29.91,SE,136,0.0,4.0,98,0.00,,,0.00,0,HR-IXPWINDi_r2_v1.2.,2013-07-28 09:59:00,
2013-07-28 06:04:00,64.9,64.3,29.91,SE,136,0.0,0.0,98,0.00,,,0.00,0,HR-IXPWINDi_r2_v1.2.,2013-07-28 10:04:00,
2013-07-28 06:09:00,65.0,64.4,29.91,SE,136,0.0,0.0,98,0.00,,,0.00,0,HR-IXPWINDi_r2_v1.2.,2013-07-28 10:09:00,
2013-07-28 06:14:00,65.2,64.6,29.91,SE,136,0.0,1.0,98,0.00,,,0.00,0,HR-IXPWINDi_r2_v1.2.,2013-07-28 10:14:00,
2013-07-28 06:19:00,65.1,64.5,29.91,SE,136,0.0,1.0,98,0.00,,,0.00,0,HR-IXPWINDi_r2_v1.2.,2013-07-28 10:19:00,
2013-07-28 06:25:00,65.1,64.5,29.92,SE,136,0.0,1.0,98,0.00,,,0.00,0,HR-IXPWINDi_r2_v1.2.,2013-07-28 10:25:00,
2013-07-28 06:30:00,65.0,64.4,29.92,SE,136,0.0,0.0,98,0.00,,,0.00,0,HR-IXPWINDi_r2_v1.2.,2013-07-28 10:30:00,
2013-07-28 06:35:00,65.0,64.4,29.92,SE,136,0.0,0.0,98,0.00,,,0.00,0,HR-IXPWINDi_r2_v1.2.,2013-07-28 10:35:00,
2013-07-28 06:40:00,65.0,64.4,29.92,SE,136,0.0,1.0,98,0.00,,,0.00,0,HR-IXPWINDi_r2_v1.2.,2013-07-28 10:40:00,
2013-07-28 06:45:00,65.0,64.4,29.92,SE,136,0.0,1.0,98,0.00,,,0.00,5,HR-IXPWINDi_r2_v1.2.,2013-07-28 10:45:00,
2013-07-28 06:50:00,64.8,64.2,29.92,SE,136,0.0,1.0,98,0.00,,,0.00,7,HR-IXPWINDi_r2_v1.2.,2013-07-28 10:50:00,
2013-07-28 06:55:00,64.6,64.0,29.92,SE,136,0.0,2.0,98,0.00,,,0.00,7,HR-IXPWINDi_r2_v1.2.,2013-07-28 10:55:00,
2013-07-28 07:01:00,64.5,63.9,29.92,SE,136,0.0,2.0,98,0.00,,,0.00,11,HR-IXPWINDi_r2_v1.2.,2013-07-28 11:01:00,
2013-07-28 07:06:00,64.6,64.0,29.92,SE,136,0.0,0.0,98,0.00,,,0.00,18,HR-IXPWINDi_r2_v1.2.,2013-07-28 11:06:00,
2013-07-28 07:11:00,64.7,64.1,29.92,SE,136,0.0,0.0,98,0.00,,,0.00,40,HR-IXPWINDi_r2_v1.2.,2013-07-28 11:11:00,
2013-07-28 07:16:00,64.8,64.2,29.93,SE,136,0.0,0.0,98,0.00,,,0.00,53,HR-IXPWINDi_r2_v1.2.,2013-07-28 11:16:00,
2013-07-28 07:21:00,64.8,64.2,29.93,SE,136,0.0,0.0,98,0.00,,,0.00,51,HR-IXPWINDi_r2_v1.2.,2013-07-28 11:21:00,
2013-07-28 07:27:00,64.9,64.3,29.93,SE,136,0.0,1.0,98,0.00,,,0.00,51,HR-IXPWINDi_r2_v1.2.,2013-07-28 11:27:00,
2013-07-28 07:32:00,65.0,64.4,29.94,SE,136,0.0,4.0,98,0.00,,,0.00,18,HR-IXPWINDi_r2_v1.2.,2013-07-28 11:32:00,
2013-07-28 07:37:00,65.2,64.6,29.94,SE,136,0.0,4.0,98,0.00,,,0.00,12,HR-IXPWINDi_r2_v1.2.,2013-07-28 11:37:00,
2013-07-28 07:42:00,65.2,64.6,29.94,SE,136,0.0,4.0,98,0.00,,,0.00,9,HR-IXPWINDi_r2_v1.2.,2013-07-28 11:42:00,
2013-07-28 07:47:00,65.2,64.6,29.94,SE,136,0.0,1.0,98,0.00,,,0.00,18,HR-IXPWINDi_r2_v1.2.,2013-07-28 11:47:00,
2013-07-28 07:52:00,65.2,64.6,29.94,SE,136,0.0,1.0,98,0.00,,,0.00,21,HR-IXPWINDi_r2_v1.2.,2013-07-28 11:52:00,
2013-07-28 07:57:00,65.3,64.7,29.94,SE,136,0.0,1.0,98,0.00,,,0.00,30,HR-IXPWINDi_r2_v1.2.,2013-07-28 11:57:00,
2013-07-28 08:03:00,65.5,64.9,29.95,SE,136,0.0,1.0,98,0.00,,,0.00,30,HR-IXPWINDi_r2_v1.2.,2013-07-28 12:03:00,
2013-07-28 08:08:00,65.4,64.5,29.95,SE,135,0.0,4.0,97,0.00,,,0.00,30,HR-IXPWINDi_r2_v1.2.,2013-07-28 12:08:00,
2013-07-28 08:13:00,65.6,64.7,29.95,SE,135,0.0,4.0,97,0.00,,,0.00,25,HR-IXPWINDi_r2_v1.2.,2013-07-28 12:13:00,
2013-07-28 08:18:00,65.6,64.7,29.95,SE,135,0.0,4.0,97,0.00,,,0.00,37,HR-IXPWINDi_r2_v1.2.,2013-07-28 12:18:00,
2013-07-28 08:23:00,65.8,64.9,29.95,SE,135,0.0,4.0,97,0.00,,,0.00,33,HR-IXPWINDi_r2_v1.2.,2013-07-28 12:23:00,
2013-07-28 08:28:00,66.1,65.2,29.95,SE,135,0.0,1.0,97,0.00,,,0.00,30,HR-IXPWINDi_r2_v1.2.,2013-07-28 12:28:00,
2013-07-28 08:33:00,66.1,65.2,29.95,SE,135,0.0,1.0,97,0.00,,,0.00,33,HR-IXPWINDi_r2_v1.2.,2013-07-28 12:33:00,
2013-07-28 08:39:00,66.2,65.3,29.95,SE,135,0.0,1.0,97,0.00,,,0.00,26,HR-IXPWINDi_r2_v1.2.,2013-07-28 12:39:00,
2013-07-28 08:45:00,66.1,65.2,29.95,SE,135,0.0,1.0,97,0.00,,,0.00,39,HR-IXPWINDi_r2_v1.2.,2013-07-28 12:45:00,
2013-07-28 08:50:00,66.0,65.1,29.95,SE,135,0.0,1.0,97,0.00,,,0.00,65,HR-IXPWINDi_r2_v1.2.,2013-07-28 12:50:00,
2013-07-28 08:55:00,66.3,65.4,29.95,SE,135,0.0,1.0,97,0.00,,,0.00,60,HR-IXPWINDi_r2_v1.2.,2013-07-28 12:55:00,
2013-07-28 09:00:00,66.3,65.4,29.95,SE,135,0.0,1.0,97,0.00,,,0.00,79,HR-IXPWINDi_r2_v1.2.,2013-07-28 13:00:00,
2013-07-28 09:05:00,66.3,65.4,29.95,SE,135,0.0,1.0,97,0.00,,,0.00,97,HR-IXPWINDi_r2_v1.2.,2013-07-28 13:05:00,
2013-07-28 09:10:00,66.7,65.8,29.95,SE,135,0.0,1.0,97,0.00,,,0.00,406,HR-IXPWINDi_r2_v1.2.,2013-07-28 13:10:00,
2013-07-28 09:15:00,67.3,66.1,29.95,SE,134,1.0,5.0,96,0.00,,,0.00,374,HR-IXPWINDi_r2_v1.2.,2013-07-28 13:15:00,
2013-07-28 09:20:00,67.8,66.6,29.95,ESE,110,0.0,5.0,96,0.00,,,0.00,199,HR-IXPWINDi_r2_v1.2.,2013-07-28 13:20:00,
2013-07-28 09:26:00,68.6,67.3,29.95,SE,135,1.0,5.0,96,0.00,,,0.00,478,HR-IXPWINDi_r2_v1.2.,2013-07-28 13:26:00,
2013-07-28 09:31:00,69.0,67.1,29.95,SE,134,1.0,6.0,94,0.00,,,0.00,475,HR-IXPWINDi_r2_v1.2.,2013-07-28 13:31:00,
2013-07-28 09:36:00,69.5,67.3,29.95,SE,132,0.0,6.0,93,0.00,,,0.00,313,HR-IXPWINDi_r2_v1.2.,2013-07-28 13:36:00,
2013-07-28 09:41:00,69.7,66.6,29.95,SE,132,0.0,5.0,90,0.00,,,0.00,334,HR-IXPWINDi_r2_v1.2.,2013-07-28 13:41:00,
2013-07-28 09:46:00,70.3,66.8,29.95,SE,132,0.0,2.0,89,0.00,,,0.00,171,HR-IXPWINDi_r2_v1.2.,2013-07-28 13:46:00,
2013-07-28 09:51:00,71.4,67.6,29.95,SE,132,0.0,1.0,88,0.00,,,0.00,174,HR-IXPWINDi_r2_v1.2.,2013-07-28 13:51:00,
2013-07-28 09:57:00,71.5,67.4,29.95,SE,132,0.0,1.0,87,0.00,,,0.00,661,HR-IXPWINDi_r2_v1.2.,2013-07-28 13:57:00,
2013-07-28 10:02:00,72.0,66.8,29.95,SE,132,0.0,0.0,84,0.00,,,0.00,243,HR-IXPWINDi_r2_v1.2.,2013-07-28 14:02:00,
2013-07-28 10:07:00,72.4,66.5,29.95,SSE,151,0.0,2.0,82,0.00,,,0.00,185,HR-IXPWINDi_r2_v1.2.,2013-07-28 14:07:00,
2013-07-28 10:12:00,71.7,66.2,29.96,South,180,0.0,5.0,83,0.00,,,0.00,156,HR-IXPWINDi_r2_v1.2.,2013-07-28 14:12:00,
2013-07-28 10:17:00,71.2,65.7,29.96,South,180,0.0,5.0,83,0.00,,,0.00,186,HR-IXPWINDi_r2_v1.2.,2013-07-28 14:17:00,
2013-07-28 10:22:00,71.7,65.8,29.96,North,360,4.0,6.0,82,0.00,,,0.00,265,HR-IXPWINDi_r2_v1.2.,2013-07-28 14:22:00,
2013-07-28 10:27:00,71.7,65.8,29.96,SSW,207,3.0,6.0,82,0.00,,,0.00,195,HR-IXPWINDi_r2_v1.2.,2013-07-28 14:27:00,
2013-07-28 10:32:00,71.9,65.7,29.95,SSW,209,0.0,4.0,81,0.00,,,0.00,636,HR-IXPWINDi_r2_v1.2.,2013-07-28 14:32:00,
2013-07-28 10:38:00,72.8,67.6,29.95,SE,130,4.0,6.0,84,0.00,,,0.00,661,HR-IXPWINDi_r2_v1.2.,2013-07-28 14:38:00,
2013-07-28 10:43:00,72.8,66.2,29.95,SE,140,0.0,6.0,80,0.00,,,0.00,747,HR-IXPWINDi_r2_v1.2.,2013-07-28 14:43:00,
2013-07-28 10:48:00,74.3,66.6,29.95,ESE,109,0.0,6.0,77,0.00,,,0.00,775,HR-IXPWINDi_r2_v1.2.,2013-07-28 14:48:00,
2013-07-28 10:53:00,75.6,66.7,29.95,NNE,32,3.0,4.0,74,0.00,,,0.00,830,HR-IXPWINDi_r2_v1.2.,2013-07-28 14:53:00,
2013-07-28 10:59:00,75.3,66.4,29.95,NNE,12,1.0,4.0,74,0.00,,,0.00,248,HR-IXPWINDi_r2_v1.2.,2013-07-28 14:59:00,
2013-07-28 11:04:00,74.7,66.6,29.95,North,5,0.0,3.0,76,0.00,,,0.00,221,HR-IXPWINDi_r2_v1.2.,2013-07-28 15:04:00,
2013-07-28 11:09:00,74.1,66.4,29.95,SE,124,0.0,3.0,77,0.00,,,0.00,239,HR-IXPWINDi_r2_v1.2.,2013-07-28 15:09:00,
2013-07-28 11:14:00,74.9,66.0,29.95,North,355,5.0,10.0,74,0.00,,,0.00,926,HR-IXPWINDi_r2_v1.2.,2013-07-28 15:14:00,
2013-07-28 11:19:00,74.4,65.5,29.95,NNW,331,3.0,10.0,74,0.00,,,0.00,255,HR-IXPWINDi_r2_v1.2.,2013-07-28 15:19:00,
2013-07-28 11:25:00,74.0,65.5,29.96,North,360,0.0,10.0,75,0.00,,,0.00,258,HR-IXPWINDi_r2_v1.2.,2013-07-28 15:25:00,
2013-07-28 11:30:00,74.8,65.9,29.96,WSW,250,0.0,7.0,74,0.00,,,0.00,796,HR-IXPWINDi_r2_v1.2.,2013-07-28 15:30:00,
2013-07-28 11:35:00,75.5,65.8,29.96,SSW,211,0.0,4.0,72,0.00,,,0.00,840,HR-IXPWINDi_r2_v1.2.,2013-07-28 15:35:00,
2013-07-28 11:40:00,75.5,65.8,29.96,South,174,0.0,7.0,72,0.00,,,0.00,863,HR-IXPWINDi_r2_v1.2.,2013-07-28 15:40:00,
2013-07-28 11:45:00,76.3,66.6,29.96,NNW,348,6.0,10.0,72,0.00,,,0.00,313,HR-IXPWINDi_r2_v1.2.,2013-07-28 15:45:00,
2013-07-28 11:50:00,75.5,66.2,29.96,North,355,0.0,10.0,73,0.00,,,0.00,916,HR-IXPWINDi_r2_v1.2.,2013-07-28 15:50:00,
2013-07-28 11:55:00,75.7,66.0,29.95,NW,321,0.0,9.0,72,0.00,,,0.00,846,HR-IXPWINDi_r2_v1.2.,2013-07-28 15:55:00,
2013-07-28 12:01:00,75.6,65.9,29.96,SSW,196,5.0,8.0,72,0.00,,,0.00,940,HR-IXPWINDi_r2_v1.2.,2013-07-28 16:01:00,
2013-07-28 12:06:00,76.5,66.3,29.96,North,355,0.0,8.0,71,0.00,,,0.00,916,HR-IXPWINDi_r2_v1.2.,2013-07-28 16:06:00,
2013-07-28 12:11:00,76.8,66.2,29.95,NNW,346,6.0,10.0,70,0.00,,,0.00,949,HR-IXPWINDi_r2_v1.2.,2013-07-28 16:11:00,
2013-07-28 12:16:00,76.9,66.3,29.96,NNW,341,2.0,10.0,70,0.00,,,0.00,946,HR-IXPWINDi_r2_v1.2.,2013-07-28 16:16:00,
2013-07-28 12:21:00,77.8,65.5,29.96,SSE,163,0.0,10.0,66,0.00,,,0.00,954,HR-IXPWINDi_r2_v1.2.,2013-07-28 16:21:00,
2013-07-28 12:27:00,77.3,66.3,29.96,SE,130,4.0,6.0,69,0.00,,,0.00,944,HR-IXPWINDi_r2_v1.2.,2013-07-28 16:27:00,
2013-07-28 12:32:00,77.9,66.0,29.96,South,175,2.0,6.0,67,0.00,,,0.00,946,HR-IXPWINDi_r2_v1.2.,2013-07-28 16:32:00,
2013-07-28 12:37:00,78.8,66.9,29.96,ESE,110,1.0,6.0,67,0.00,,,0.00,954,HR-IXPWINDi_r2_v1.2.,2013-07-28 16:37:00,
2013-07-28 12:42:00,78.3,66.8,29.95,SSE,150,4.0,6.0,68,0.00,,,0.00,930,HR-IXPWINDi_r2_v1.2.,2013-07-28 16:42:00,
2013-07-28 12:47:00,77.6,67.0,29.95,SSW,201,0.0,7.0,70,0.00,,,0.00,995,HR-IXPWINDi_r2_v1.2.,2013-07-28 16:47:00,
2013-07-28 12:52:00,78.6,67.5,29.95,NNW,345,3.0,8.0,69,0.00,,,0.00,482,HR-IXPWINDi_r2_v1.2.,2013-07-28 16:52:00,
2013-07-28 12:57:00,79.5,66.2,29.96,North,11,0.0,8.0,64,0.00,,,0.00,408,HR-IXPWINDi_r2_v1.2.,2013-07-28 16:57:00,
2013-07-28 13:02:00,79.2,66.8,29.95,SSW,208,0.0,5.0,66,0.00,,,0.00,195,HR-IXPWINDi_r2_v1.2.,2013-07-28 17:02:00,
2013-07-28 13:08:00,77.4,66.4,29.95,North,349,4.0,7.0,69,0.00,,,0.00,95,HR-IXPWINDi_r2_v1.2.,2013-07-28 17:08:00,
2013-07-28 13:13:00,76.2,67.2,29.96,North,360,0.0,9.0,74,0.00,,,0.00,86,HR-IXPWINDi_r2_v1.2.,2013-07-28 17:13:00,
2013-07-28 13:18:00,75.5,65.8,29.96,NW,321,0.0,9.0,72,0.00,,,0.00,125,HR-IXPWINDi_r2_v1.2.,2013-07-28 17:18:00,
2013-07-28 13:23:00,75.4,66.1,29.96,NNW,338,0.0,5.0,73,0.00,,,0.00,202,HR-IXPWINDi_r2_v1.2.,2013-07-28 17:23:00,
2013-07-28 13:28:00,75.1,64.6,29.96,North,360,2.0,5.0,70,0.00,,,0.00,241,HR-IXPWINDi_r2_v1.2.,2013-07-28 17:28:00,
2013-07-28 13:34:00,76.4,66.2,29.96,NNE,16,3.0,5.0,71,0.00,,,0.00,216,HR-IXPWINDi_r2_v1.2.,2013-07-28 17:34:00,
2013-07-28 13:39:00,75.3,67.5,29.96,NNW,340,4.0,5.0,77,0.00,,,0.00,139,HR-IXPWINDi_r2_v1.2.,2013-07-28 17:39:00,
2013-07-28 13:44:00,73.8,67.2,29.96,NNW,334,0.0,5.0,80,0.00,,,0.00,183,HR-IXPWINDi_r2_v1.2.,2013-07-28 17:44:00,
2013-07-28 13:49:00,73.9,66.9,29.96,NNW,334,0.0,4.0,79,0.00,,,0.00,378,HR-IXPWINDi_r2_v1.2.,2013-07-28 17:49:00,
2013-07-28 13:54:00,74.3,68.0,29.95,SE,138,2.0,4.0,81,0.00,,,0.00,287,HR-IXPWINDi_r2_v1.2.,2013-07-28 17:54:00,
2013-07-28 13:59:00,74.3,69.1,29.95,South,178,2.0,4.0,84,0.00,,,0.00,547,HR-IXPWINDi_r2_v1.2.,2013-07-28 17:59:00,
2013-07-28 14:04:00,74.9,68.3,29.95,SSE,158,0.0,5.0,80,0.00,,,0.00,1034,HR-IXPWINDi_r2_v1.2.,2013-07-28 18:04:00,
2013-07-28 14:09:00,75.7,67.2,29.95,SSE,158,1.0,5.0,75,0.00,,,0.00,1062,HR-IXPWINDi_r2_v1.2.,2013-07-28 18:09:00,
2013-07-28 14:15:00,75.9,67.0,29.95,SSE,153,4.0,6.0,74,0.00,,,0.00,912,HR-IXPWINDi_r2_v1.2.,2013-07-28 18:15:00,
2013-07-28 14:20:00,76.5,67.1,29.94,SSE,156,2.0,6.0,73,0.00,,,0.00,940,HR-IXPWINDi_r2_v1.2.,2013-07-28 18:20:00,
2013-07-28 14:25:00,77.7,68.3,29.93,SE,146,4.0,6.0,73,0.00,,,0.00,969,HR-IXPWINDi_r2_v1.2.,2013-07-28 18:25:00,
2013-07-28 14:30:00,77.8,66.3,29.94,ESE,111,1.0,6.0,68,0.00,,,0.00,995,HR-IXPWINDi_r2_v1.2.,2013-07-28 18:30:00,
2013-07-28 14:35:00,77.9,66.4,29.93,SE,126,2.0,6.0,68,0.00,,,0.00,158,HR-IXPWINDi_r2_v1.2.,2013-07-28 18:35:00,
2013-07-28 14:40:00,77.3,66.7,29.94,WNW,302,0.0,5.0,70,0.00,,,0.00,90,HR-IXPWINDi_r2_v1.2.,2013-07-28 18:40:00,
2013-07-28 14:46:00,76.4,68.2,29.94,NW,320,1.0,5.0,76,0.00,,,0.00,169,HR-IXPWINDi_r2_v1.2.,2013-07-28 18:46:00,
2013-07-28 14:51:00,76.6,66.4,29.94,NW,322,0.0,5.0,71,0.00,,,0.00,313,HR-IXPWINDi_r2_v1.2.,2013-07-28 18:51:00,
2013-07-28 14:56:00,78.2,65.9,29.94,SSE,152,0.0,5.0,66,0.00,,,0.00,947,HR-IXPWINDi_r2_v1.2.,2013-07-28 18:56:00,
2013-07-28 15:01:00,79.4,67.0,29.94,SSE,159,4.0,4.0,66,0.00,,,0.00,861,HR-IXPWINDi_r2_v1.2.,2013-07-28 19:01:00,
2013-07-28 15:07:00,78.1,65.3,29.94,NNE,12,4.0,6.0,65,0.00,,,0.00,828,HR-IXPWINDi_r2_v1.2.,2013-07-28 19:07:00,
2013-07-28 15:12:00,80.7,66.9,29.94,NNW,346,0.0,6.0,63,0.00,,,0.00,817,HR-IXPWINDi_r2_v1.2.,2013-07-28 19:12:00,
2013-07-28 15:17:00,81.2,66.4,29.93,North,355,0.0,7.0,61,0.00,,,0.00,805,HR-IXPWINDi_r2_v1.2.,2013-07-28 19:17:00,
2013-07-28 15:22:00,79.1,65.8,29.93,NNW,348,0.0,7.0,64,0.00,,,0.00,795,HR-IXPWINDi_r2_v1.2.,2013-07-28 19:22:00,
2013-07-28 15:27:00,78.7,65.0,29.93,North,355,5.0,9.0,63,0.00,,,0.00,789,HR-IXPWINDi_r2_v1.2.,2013-07-28 19:27:00,
2013-07-28 15:32:00,78.8,65.5,29.93,South,171,0.0,9.0,64,0.00,,,0.00,803,HR-IXPWINDi_r2_v1.2.,2013-07-28 19:32:00,
2013-07-28 15:37:00,79.9,66.1,29.93,SSE,155,0.0,10.0,63,0.00,,,0.00,853,HR-IXPWINDi_r2_v1.2.,2013-07-28 19:37:00,
2013-07-28 15:43:00,79.3,65.6,29.93,North,360,2.0,10.0,63,0.00,,,0.00,278,HR-IXPWINDi_r2_v1.2.,2013-07-28 19:43:00,
2013-07-28 15:48:00,79.6,67.2,29.93,NNW,346,4.0,9.0,66,0.00,,,0.00,928,HR-IXPWINDi_r2_v1.2.,2013-07-28 19:48:00,
2013-07-28 15:53:00,80.4,67.1,29.93,North,350,3.0,6.0,64,0.00,,,0.00,884,HR-IXPWINDi_r2_v1.2.,2013-07-28 19:53:00,
2013-07-28 15:58:00,80.5,68.0,29.92,North,355,1.0,6.0,66,0.00,,,0.00,795,HR-IXPWINDi_r2_v1.2.,2013-07-28 19:58:00,
2013-07-28 16:03:00,81.5,68.1,29.92,SSW,211,1.0,6.0,64,0.00,,,0.00,780,HR-IXPWINDi_r2_v1.2.,2013-07-28 20:03:00,
2013-07-28 16:08:00,80.6,68.1,29.92,SSW,213,1.0,7.0,66,0.00,,,0.00,745,HR-IXPWINDi_r2_v1.2.,2013-07-28 20:08:00,
2013-07-28 16:14:00,80.6,67.7,29.92,North,355,3.0,7.0,65,0.00,,,0.00,225,HR-IXPWINDi_r2_v1.2.,2013-07-28 20:14:00,
2013-07-28 16:19:00,80.4,65.7,29.92,NW,323,1.0,12.0,61,0.00,,,0.00,779,HR-IXPWINDi_r2_v1.2.,2013-07-28 20:19:00,
2013-07-28 16:24:00,79.1,65.4,29.92,NNW,337,0.0,12.0,63,0.00,,,0.00,306,HR-IXPWINDi_r2_v1.2.,2013-07-28 20:24:00,
2013-07-28 16:29:00,78.8,66.0,29.92,North,355,3.0,6.0,65,0.00,,,0.00,708,HR-IXPWINDi_r2_v1.2.,2013-07-28 20:29:00,
2013-07-28 16:34:00,79.4,67.0,29.92,NNW,347,0.0,9.0,66,0.00,,,0.00,719,HR-IXPWINDi_r2_v1.2.,2013-07-28 20:34:00,
2013-07-28 16:39:00,80.0,68.0,29.92,North,349,0.0,9.0,67,0.00,,,0.00,295,HR-IXPWINDi_r2_v1.2.,2013-07-28 20:39:00,
2013-07-28 16:45:00,80.4,66.6,29.93,North,355,3.0,4.0,63,0.00,,,0.00,171,HR-IXPWINDi_r2_v1.2.,2013-07-28 20:45:00,
2013-07-28 16:50:00,79.2,66.4,29.93,NW,319,3.0,5.0,65,0.00,,,0.00,183,HR-IXPWINDi_r2_v1.2.,2013-07-28 20:50:00,
2013-07-28 16:55:00,80.1,67.2,29.93,NNE,13,0.0,5.0,65,0.00,,,0.00,673,HR-IXPWINDi_r2_v1.2.,2013-07-28 20:55:00,
2013-07-28 17:01:00,79.3,66.0,29.93,NNW,345,3.0,9.0,64,0.00,,,0.00,680,HR-IXPWINDi_r2_v1.2.,2013-07-28 21:01:00,
2013-07-28 17:06:00,79.4,65.7,29.93,NNW,342,8.0,13.0,63,0.00,,,0.00,659,HR-IXPWINDi_r2_v1.2.,2013-07-28 21:06:00,
2013-07-28 17:12:00,78.6,64.0,29.93,NNW,343,4.0,13.0,61,0.00,,,0.00,580,HR-IXPWINDi_r2_v1.2.,2013-07-28 21:12:00,
2013-07-28 17:17:00,78.2,65.0,29.93,NNW,333,0.0,13.0,64,0.00,,,0.00,543,HR-IXPWINDi_r2_v1.2.,2013-07-28 21:17:00,
2013-07-28 17:22:00,78.5,64.8,29.94,NW,321,0.0,13.0,63,0.00,,,0.00,533,HR-IXPWINDi_r2_v1.2.,2013-07-28 21:22:00,
2013-07-28 17:27:00,79.6,66.7,29.94,NNW,340,0.0,10.0,65,0.00,,,0.00,533,HR-IXPWINDi_r2_v1.2.,2013-07-28 21:27:00,
2013-07-28 17:32:00,78.9,66.1,29.94,South,184,0.0,5.0,65,0.00,,,0.00,519,HR-IXPWINDi_r2_v1.2.,2013-07-28 21:32:00,
2013-07-28 17:37:00,78.1,64.9,29.93,SSW,192,3.0,5.0,64,0.00,,,0.00,494,HR-IXPWINDi_r2_v1.2.,2013-07-28 21:37:00,
2013-07-28 17:42:00,79.1,65.4,29.94,NE,42,0.0,5.0,63,0.00,,,0.00,482,HR-IXPWINDi_r2_v1.2.,2013-07-28 21:42:00,
2013-07-28 17:47:00,80.0,65.8,29.93,NNW,340,4.0,5.0,62,0.00,,,0.00,457,HR-IXPWINDi_r2_v1.2.,2013-07-28 21:47:00,
2013-07-28 17:52:00,79.2,65.9,29.94,NNW,346,2.0,4.0,64,0.00,,,0.00,443,HR-IXPWINDi_r2_v1.2.,2013-07-28 21:52:00,
2013-07-28 17:57:00,79.4,64.7,29.93,NNW,336,5.0,6.0,61,0.00,,,0.00,422,HR-IXPWINDi_r2_v1.2.,2013-07-28 21:57:00,
2013-07-28 18:03:00,79.0,64.8,29.93,ESE,116,0.0,6.0,62,0.00,,,0.00,417,HR-IXPWINDi_r2_v1.2.,2013-07-28 22:03:00,
2013-07-28 18:08:00,78.3,64.2,29.94,North,5,0.0,6.0,62,0.00,,,0.00,257,HR-IXPWINDi_r2_v1.2.,2013-07-28 22:08:00,
2013-07-28 18:13:00,77.5,63.9,29.94,South,190,1.0,8.0,63,0.00,,,0.00,70,HR-IXPWINDi_r2_v1.2.,2013-07-28 22:13:00,
2013-07-28 18:18:00,76.6,63.5,29.94,NNW,346,1.0,8.0,64,0.00,,,0.00,83,HR-IXPWINDi_r2_v1.2.,2013-07-28 22:18:00,
2013-07-28 18:24:00,76.5,63.8,29.94,NNW,331,0.0,8.0,65,0.00,,,0.00,72,HR-IXPWINDi_r2_v1.2.,2013-07-28 22:24:00,
2013-07-28 18:29:00,77.3,65.0,29.94,North,355,2.0,4.0,66,0.00,,,0.00,51,HR-IXPWINDi_r2_v1.2.,2013-07-28 22:29:00,
2013-07-28 18:34:00,76.2,63.1,29.94,NW,311,1.0,7.0,64,0.00,,,0.00,39,HR-IXPWINDi_r2_v1.2.,2013-07-28 22:34:00,
2013-07-28 18:39:00,75.6,63.4,29.94,NNW,342,3.0,7.0,66,0.00,,,0.00,63,HR-IXPWINDi_r2_v1.2.,2013-07-28 22:39:00,
2013-07-28 18:44:00,75.7,63.9,29.94,NNW,344,0.0,7.0,67,0.00,,,0.00,63,HR-IXPWINDi_r2_v1.2.,2013-07-28 22:44:00,
2013-07-28 18:50:00,76.2,64.8,29.94,NNW,344,1.0,7.0,68,0.00,,,0.00,54,HR-IXPWINDi_r2_v1.2.,2013-07-28 22:50:00,
2013-07-28 18:55:00,75.4,64.9,29.94,North,5,1.0,2.0,70,0.00,,,0.00,54,HR-IXPWINDi_r2_v1.2.,2013-07-28 22:55:00,
2013-07-28 19:00:00,75.1,64.6,29.94,NE,49,0.0,4.0,70,0.00,,,0.00,51,HR-IXPWINDi_r2_v1.2.,2013-07-28 23:00:00,
2013-07-28 19:05:00,75.4,63.6,29.95,NE,49,0.0,4.0,67,0.00,,,0.00,39,HR-IXPWINDi_r2_v1.2.,2013-07-28 23:05:00,
2013-07-28 19:10:00,75.2,64.7,29.95,NE,49,0.0,1.0,70,0.00,,,0.00,30,HR-IXPWINDi_r2_v1.2.,2013-07-28 23:10:00,
2013-07-28 19:16:00,74.9,65.6,29.95,NE,51,0.0,1.0,73,0.00,,,0.00,40,HR-IXPWINDi_r2_v1.2.,2013-07-28 23:16:00,
2013-07-28 19:21:00,73.9,64.6,29.96,North,349,0.0,3.0,73,0.00,,,0.00,39,HR-IXPWINDi_r2_v1.2.,2013-07-28 23:21:00,
2013-07-28 19:26:00,73.5,65.0,29.96,North,349,0.0,3.0,75,0.00,,,0.00,32,HR-IXPWINDi_r2_v1.2.,2013-07-28 23:26:00,
2013-07-28 19:32:00,72.8,65.1,29.96,North,350,0.0,1.0,77,0.00,,,0.00,42,HR-IXPWINDi_r2_v1.2.,2013-07-28 23:32:00,
2013-07-28 19:37:00,72.7,64.6,29.96,North,350,0.0,1.0,76,0.00,,,0.00,47,HR-IXPWINDi_r2_v1.2.,2013-07-28 23:37:00,
2013-07-28 19:42:00,72.1,64.8,29.96,North,360,0.0,1.0,78,0.00,,,0.00,42,HR-IXPWINDi_r2_v1.2.,2013-07-28 23:42:00,
2013-07-28 19:47:00,72.0,65.1,29.96,North,360,0.0,1.0,79,0.00,,,0.00,35,HR-IXPWINDi_r2_v1.2.,2013-07-28 23:47:00,
2013-07-28 19:52:00,71.5,64.9,29.96,North,360,0.0,1.0,80,0.00,,,0.00,28,HR-IXPWINDi_r2_v1.2.,2013-07-28 23:52:00,
2013-07-28 19:57:00,71.8,65.9,29.96,North,360,0.0,1.0,82,0.00,,,0.00,28,HR-IXPWINDi_r2_v1.2.,2013-07-28 23:57:00,
2013-07-28 20:03:00,71.3,65.1,29.96,North,360,0.0,0.0,81,0.00,,,0.00,26,HR-IXPWINDi_r2_v1.2.,2013-07-29 00:03:00,
2013-07-28 20:08:00,71.3,64.7,29.96,North,360,0.0,2.0,80,0.00,,,0.00,23,HR-IXPWINDi_r2_v1.2.,2013-07-29 00:08:00,
2013-07-28 20:13:00,71.4,65.6,29.97,North,360,0.0,2.0,82,0.00,,,0.00,21,HR-IXPWINDi_r2_v1.2.,2013-07-29 00:13:00,
2013-07-28 20:18:00,71.2,65.4,29.97,North,360,0.0,1.0,82,0.00,,,0.00,19,HR-IXPWINDi_r2_v1.2.,2013-07-29 00:18:00,
2013-07-28 20:23:00,69.9,64.1,29.97,North,360,0.0,0.0,82,0.00,,,0.00,14,HR-IXPWINDi_r2_v1.2.,2013-07-29 00:23:00,
2013-07-28 20:28:00,69.4,63.9,29.97,North,360,0.0,1.0,83,0.00,,,0.00,9,HR-IXPWINDi_r2_v1.2.,2013-07-29 00:28:00,
2013-07-28 20:33:00,68.8,64.0,29.98,North,360,0.0,1.0,85,0.00,,,0.00,5,HR-IXPWINDi_r2_v1.2.,2013-07-29 00:33:00,
2013-07-28 20:39:00,68.4,64.3,29.98,North,360,0.0,1.0,87,0.00,,,0.00,0,HR-IXPWINDi_r2_v1.2.,2013-07-29 00:39:00,
2013-07-28 20:44:00,68.0,63.9,29.98,North,360,0.0,1.0,87,0.00,,,0.00,0,HR-IXPWINDi_r2_v1.2.,2013-07-29 00:44:00,
2013-07-28 20:49:00,67.6,63.9,29.98,North,360,0.0,1.0,88,0.00,,,0.00,0,HR-IXPWINDi_r2_v1.2.,2013-07-29 00:49:00,
2013-07-28 20:54:00,67.4,64.0,29.98,North,360,0.0,1.0,89,0.00,,,0.00,0,HR-IXPWINDi_r2_v1.2.,2013-07-29 00:54:00,
2013-07-28 20:59:00,67.2,63.8,29.98,North,360,0.0,1.0,89,0.00,,,0.00,0,HR-IXPWINDi_r2_v1.2.,2013-07-29 00:59:00,
2013-07-28 21:04:00,66.9,63.5,29.98,North,360,0.0,1.0,89,0.00,,,0.00,0,HR-IXPWINDi_r2_v1.2.,2013-07-29 01:04:00,
2013-07-28 21:10:00,66.6,63.5,29.99,NE,38,0.0,1.0,90,0.00,,,0.00,0,HR-IXPWINDi_r2_v1.2.,2013-07-29 01:10:00,
2013-07-28 21:15:00,66.4,63.6,29.99,ENE,61,0.0,2.0,91,0.00,,,0.00,0,HR-IXPWINDi_r2_v1.2.,2013-07-29 01:15:00,
2013-07-28 21:20:00,66.3,63.5,29.99,ENE,61,0.0,2.0,91,0.00,,,0.00,0,HR-IXPWINDi_r2_v1.2.,2013-07-29 01:20:00,
2013-07-28 21:25:00,66.2,63.4,29.99,ENE,62,0.0,2.0,91,0.00,,,0.00,0,HR-IXPWINDi_r2_v1.2.,2013-07-29 01:25:00,
2013-07-28 21:30:00,65.8,63.0,29.99,ENE,63,0.0,2.0,91,0.00,,,0.00,0,HR-IXPWINDi_r2_v1.2.,2013-07-29 01:30:00,
2013-07-28 21:35:00,65.2,62.7,30.00,ENE,65,0.0,2.0,92,0.00,,,0.00,0,HR-IXPWINDi_r2_v1.2.,2013-07-29 01:35:00,
2013-07-28 21:40:00,64.9,62.8,30.00,ENE,65,0.0,2.0,93,0.00,,,0.00,0,HR-IXPWINDi_r2_v1.2.,2013-07-29 01:40:00,
2013-07-28 21:45:00,65.0,62.9,30.00,ENE,67,0.0,2.0,93,0.00,,,0.00,0,HR-IXPWINDi_r2_v1.2.,2013-07-29 01:45:00,
2013-07-28 21:50:00,64.7,62.6,30.01,ENE,67,0.0,2.0,93,0.00,,,0.00,0,HR-IXPWINDi_r2_v1.2.,2013-07-29 01:50:00,
2013-07-28 21:55:00,64.5,62.4,30.01,ENE,77,0.0,2.0,93,0.00,,,0.00,0,HR-IXPWINDi_r2_v1.2.,2013-07-29 01:55:00,
2013-07-28 22:00:00,64.5,62.4,30.01,East,80,0.0,2.0,93,0.00,,,0.00,0,HR-IXPWINDi_r2_v1.2.,2013-07-29 02:00:00,
2013-07-28 22:05:00,64.6,62.5,30.01,East,85,1.0,2.0,93,0.00,,,0.00,0,HR-IXPWINDi_r2_v1.2.,2013-07-29 02:05:00,
2013-07-28 22:10:00,64.3,62.2,30.02,East,85,0.0,3.0,93,0.00,,,0.00,0,HR-IXPWINDi_r2_v1.2.,2013-07-29 02:10:00,
2013-07-28 22:16:00,64.1,62.3,30.02,East,85,0.0,3.0,94,0.00,,,0.00,0,HR-IXPWINDi_r2_v1.2.,2013-07-29 02:16:00,
2013-07-28 22:21:00,63.9,62.1,30.02,East,85,0.0,2.0,94,0.00,,,0.00,0,HR-IXPWINDi_r2_v1.2.,2013-07-29 02:21:00,
2013-07-28 22:26:00,63.8,62.0,30.02,East,92,0.0,4.0,94,0.00,,,0.00,0,HR-IXPWINDi_r2_v1.2.,2013-07-29 02:26:00,
2013-07-28 22:31:00,64.0,62.2,30.02,East,92,0.0,4.0,94,0.00,,,0.00,0,HR-IXPWINDi_r2_v1.2.,2013-07-29 02:31:00,
2013-07-28 22:36:00,64.0,62.2,30.02,East,91,0.0,2.0,94,0.00,,,0.00,0,HR-IXPWINDi_r2_v1.2.,2013-07-29 02:36:00,
2013-07-28 22:41:00,63.8,62.0,30.02,East,92,0.0,2.0,94,0.00,,,0.00,0,HR-IXPWINDi_r2_v1.2.,2013-07-29 02:41:00,
2013-07-28 22:47:00,63.4,61.6,30.02,East,92,0.0,2.0,94,0.00,,,0.00,0,HR-IXPWINDi_r2_v1.2.,2013-07-29 02:47:00,
2013-07-28 22:52:00,63.2,61.4,30.02,East,92,0.0,2.0,94,0.00,,,0.00,0,HR-IXPWINDi_r2_v1.2.,2013-07-29 02:52:00,
2013-07-28 22:57:00,63.2,61.4,30.02,East,92,0.0,1.0,94,0.00,,,0.00,0,HR-IXPWINDi_r2_v1.2.,2013-07-29 02:57:00,
2013-07-28 23:02:00,63.0,61.5,30.02,East,92,0.0,1.0,95,0.00,,,0.00,0,HR-IXPWINDi_r2_v1.2.,2013-07-29 03:02:00,
2013-07-28 23:08:00,62.9,61.4,30.02,East,92,0.0,2.0,95,0.00,,,0.00,0,HR-IXPWINDi_r2_v1.2.,2013-07-29 03:08:00,
2013-07-28 23:13:00,62.8,61.3,30.02,East,92,0.0,2.0,95,0.00,,,0.00,0,HR-IXPWINDi_r2_v1.2.,2013-07-29 03:13:00,
2013-07-28 23:18:00,62.7,61.2,30.03,East,92,0.0,2.0,95,0.00,,,0.00,0,HR-IXPWINDi_r2_v1.2.,2013-07-29 03:18:00,
2013-07-28 23:23:00,62.7,61.2,30.03,East,92,0.0,2.0,95,0.00,,,0.00,0,HR-IXPWINDi_r2_v1.2.,2013-07-29 03:23:00,
2013-07-28 23:28:00,62.7,61.2,30.03,East,92,0.0,2.0,95,0.00,,,0.00,0,HR-IXPWINDi_r2_v1.2.,2013-07-29 03:28:00,
2013-07-28 23:33:00,62.5,61.0,30.02,East,93,0.0,4.0,95,0.00,,,0.00,0,HR-IXPWINDi_r2_v1.2.,2013-07-29 03:33:00,
2013-07-28 23:38:00,62.3,60.8,30.02,ESE,106,0.0,4.0,95,0.00,,,0.00,0,HR-IXPWINDi_r2_v1.2.,2013-07-29 03:38:00,
2013-07-28 23:44:00,62.2,60.7,30.02,ESE,106,0.0,4.0,95,0.00,,,0.00,0,HR-IXPWINDi_r2_v1.2.,2013-07-29 03:44:00,
2013-07-28 23:49:00,62.1,60.6,30.02,ESE,106,2.0,4.0,95,0.00,,,0.00,0,HR-IXPWINDi_r2_v1.2.,2013-07-29 03:49:00,
2013-07-28 23:54:00,62.0,60.5,30.02,ESE,106,0.0,4.0,95,0.00,,,0.00,0,HR-IXPWINDi_r2_v1.2.,2013-07-29 03:54:00,
2013-07-28 23:59:00,61.9,60.4,30.02,ESE,106,0.0,4.0,95,0.00,,,0.00,0,HR-IXPWINDi_r2_v1.2.,2013-07-29 03:59:00,